Time;durP1;ratioP1;P1;durP2;ratioP2;P2;SDS_P1;SDS_P2;PMS_P1;PMS_P2;Temp;Humidity;BMP_temperature;BMP_pressure;BME280_temperature;BME280_humidity;BME280_pressure;Samples;Min_cycle;Max_cycle;Signal;HPM_P1;HPM_P2
2022/10/25 00:01:29;;;;;;;3.20;1.80;;;12.80;99.90;;;;;;5033202;28;20454;-61
2022/10/25 00:03:56;;;;;;;3.20;2.00;;;12.80;99.90;;;;;;5033217;28;20506;-61
2022/10/25 00:06:24;;;;;;;3.43;2.03;;;12.70;99.90;;;;;;5033582;28;20525;-62
2022/10/25 00:08:53;;;;;;;1.93;1.83;;;12.70;99.90;;;;;;5037438;28;20448;-61
2022/10/25 00:11:22;;;;;;;3.10;2.00;;;12.70;99.90;;;;;;5037306;28;20445;-62
2022/10/25 00:13:51;;;;;;;4.13;1.80;;;12.60;99.90;;;;;;5036958;28;20480;-61
2022/10/25 00:16:21;;;;;;;2.10;1.60;;;12.70;99.90;;;;;;5037107;28;20469;-61
2022/10/25 00:18:48;;;;;;;3.37;2.17;;;12.70;99.90;;;;;;5036855;28;20980;-61
2022/10/25 00:21:15;;;;;;;3.60;2.20;;;12.70;99.90;;;;;;5036828;28;20653;-62
2022/10/25 00:23:43;;;;;;;2.47;2.10;;;12.70;99.90;;;;;;5036883;28;20643;-62
2022/10/25 00:26:12;;;;;;;3.80;1.90;;;12.70;99.90;;;;;;5036767;28;20456;-62
2022/10/25 00:28:40;;;;;;;2.40;2.20;;;12.60;99.90;;;;;;5037002;28;20532;-62
2022/10/25 00:31:08;;;;;;;2.20;1.93;;;;;;;;;;5036704;28;20450;-61
2022/10/25 00:33:37;;;;;;;2.80;2.20;;;12.60;99.90;;;;;;5036980;28;20492;-62
2022/10/25 00:36:07;;;;;;;3.93;2.07;;;12.60;99.90;;;;;;5036895;28;20450;-61
2022/10/25 00:38:35;;;;;;;2.70;1.90;;;12.60;99.90;;;;;;5036731;28;20478;-63
2022/10/25 00:41:02;;;;;;;2.03;1.83;;;12.70;99.90;;;;;;5036593;28;20947;-62
2022/10/25 00:43:36;;;;;;;3.77;2.20;;;12.70;99.90;;;;;;5036713;28;20913;-61
2022/10/25 00:46:07;;;;;;;4.17;2.00;;;12.70;99.90;;;;;;5036370;28;20529;-62
2022/10/25 00:48:35;;;;;;;2.00;1.80;;;12.60;99.90;;;;;;5036310;28;20456;-61
2022/10/25 00:51:03;;;;;;;3.27;1.97;;;12.70;99.90;;;;;;5036770;28;20928;-62
2022/10/25 00:53:35;;;;;;;3.00;2.70;;;12.70;99.90;;;;;;5036477;28;20885;-61
2022/10/25 00:56:08;;;;;;;2.27;1.90;;;12.70;99.90;;;;;;5036590;28;20458;-62
2022/10/25 00:58:38;;;;;;;5.10;2.13;;;12.70;99.90;;;;;;5036199;28;20470;-62
2022/10/25 01:01:08;;;;;;;3.00;2.73;;;12.80;99.90;;;;;;5036650;28;20446;-62
2022/10/25 01:03:38;;;;;;;2.23;2.03;;;12.80;99.90;;;;;;5036332;28;20493;-62
2022/10/25 01:06:12;;;;;;;2.60;2.40;;;12.80;99.90;;;;;;5036297;28;20870;-62
2022/10/25 01:08:42;;;;;;;4.23;2.07;;;12.80;99.90;;;;;;5036407;28;20427;-62
2022/10/25 01:11:09;;;;;;;3.53;2.13;;;12.80;99.90;;;;;;5036361;28;20529;-62
2022/10/25 01:13:38;;;;;;;2.30;1.93;;;12.80;99.90;;;;;;5035801;28;20556;-62
2022/10/25 01:16:15;;;;;;;2.43;1.90;;;12.80;99.90;;;;;;5036132;28;20450;-62
2022/10/25 01:18:47;;;;;;;4.10;2.10;;;12.80;99.90;;;;;;5034991;28;21126;-62
2022/10/25 01:21:37;;;;;;;2.60;2.40;;;12.70;99.90;;;;;;5036210;28;20514;-62
2022/10/25 01:24:35;;;;;;;3.37;2.53;;;12.80;99.90;;;;;;5035763;28;20481;-61
2022/10/25 01:27:15;;;;;;;2.23;2.03;;;12.80;99.90;;;;;;5035873;28;20419;-60
2022/10/25 01:30:08;;;;;;;2.00;1.73;;;12.80;99.90;;;;;;5035975;28;20414;-60
2022/10/25 01:32:45;;;;;;;3.60;2.20;;;12.80;99.90;;;;;;5035735;28;20541;-60
2022/10/25 01:35:25;;;;;;;2.40;2.00;;;12.80;99.90;;;;;;5035916;28;20426;-60
2022/10/25 01:38:05;;;;;;;10.20;2.20;;;12.80;99.90;;;;;;5035884;28;20470;-61
2022/10/25 01:40:41;;;;;;;2.10;1.90;;;12.80;99.90;;;;;;5035862;28;20466;-61
2022/10/25 01:43:18;;;;;;;3.43;2.10;;;12.80;99.90;;;;;;5035339;28;20578;-61
2022/10/25 01:45:52;;;;;;;3.27;2.33;;;12.80;99.90;;;;;;5035409;28;20560;-60
2022/10/25 01:48:26;;;;;;;2.33;2.13;;;12.80;99.90;;;;;;5035162;28;20426;-61
2022/10/25 01:50:53;;;;;;;2.37;2.17;;;12.80;99.90;;;;;;5035531;28;20482;-61
2022/10/25 01:53:20;;;;;;;2.23;2.03;;;12.80;99.90;;;;;;5035509;28;20462;-61
2022/10/25 01:55:51;;;;;;;2.67;2.23;;;12.90;99.90;;;;;;5035453;28;20477;-60
2022/10/25 01:58:32;;;;;;;2.80;2.50;;;12.80;99.90;;;;;;5035337;28;20468;-61
2022/10/25 02:01:07;;;;;;;3.83;2.40;;;12.80;99.90;;;;;;5035272;28;20513;-61
2022/10/25 02:03:44;;;;;;;3.50;2.67;;;12.80;99.90;;;;;;5035340;28;20520;-61
2022/10/25 02:06:25;;;;;;;4.30;2.30;;;12.80;99.90;;;;;;5035079;28;20769;-63
2022/10/25 02:08:59;;;;;;;3.47;2.10;;;12.80;99.90;;;;;;5034962;28;20426;-62
2022/10/25 02:11:28;;;;;;;4.73;2.60;;;12.70;99.90;;;;;;5034799;28;20522;-61
2022/10/25 02:14:07;;;;;;;4.97;2.53;;;12.70;99.90;;;;;;5034655;28;20472;-61
2022/10/25 02:16:40;;;;;;;10.93;2.50;;;12.60;99.90;;;;;;5034663;28;20905;-62
2022/10/25 02:19:12;;;;;;;3.20;2.20;;;12.60;99.90;;;;;;5034772;28;20492;-61
2022/10/25 02:21:40;;;;;;;3.37;2.30;;;12.50;99.90;;;;;;5034848;28;20430;-61
2022/10/25 02:24:11;;;;;;;2.70;2.23;;;12.50;99.90;;;;;;5034363;28;20980;-61
2022/10/25 02:26:41;;;;;;;5.67;2.50;;;12.50;99.90;;;;;;5034847;28;20805;-62
2022/10/25 02:29:10;;;;;;;3.20;2.43;;;12.50;99.90;;;;;;5034891;28;20533;-61
2022/10/25 02:31:38;;;;;;;3.73;2.40;;;12.50;99.90;;;;;;5033174;28;20443;-62
2022/10/25 02:34:06;;;;;;;3.63;2.30;;;12.50;99.90;;;;;;5034634;28;20481;-62
2022/10/25 02:36:35;;;;;;;6.40;2.50;;;12.50;99.90;;;;;;5034743;28;20533;-61
2022/10/25 02:39:04;;;;;;;3.30;2.70;;;12.50;99.90;;;;;;5034508;28;20482;-61
2022/10/25 02:41:32;;;;;;;4.50;2.37;;;12.50;99.90;;;;;;5034311;28;20450;-61
2022/10/25 02:44:00;;;;;;;5.13;2.50;;;12.50;99.90;;;;;;5034226;28;20505;-61
2022/10/25 02:46:27;;;;;;;4.73;2.37;;;12.50;99.90;;;;;;5034253;28;20442;-61
2022/10/25 02:48:54;;;;;;;3.03;2.07;;;12.60;99.90;;;;;;5033987;28;21040;-61
2022/10/25 02:51:21;;;;;;;5.40;2.60;;;12.60;99.90;;;;;;5034175;28;20964;-62
2022/10/25 02:53:50;;;;;;;2.47;2.27;;;12.60;99.90;;;;;;5034046;28;20475;-61
2022/10/25 02:56:20;;;;;;;2.70;2.50;;;12.60;99.90;;;;;;5034208;28;20482;-61
2022/10/25 02:58:48;;;;;;;2.53;2.33;;;12.60;99.90;;;;;;5033765;28;20532;-61
2022/10/25 03:01:17;;;;;;;5.23;3.50;;;12.50;99.90;;;;;;5034211;28;20442;-62
2022/10/25 03:03:45;;;;;;;5.47;2.60;;;12.50;99.90;;;;;;5034078;28;20561;-61
2022/10/25 03:06:13;;;;;;;3.40;2.43;;;12.50;99.90;;;;;;5034064;28;20447;-61
2022/10/25 03:08:42;;;;;;;13.30;3.47;;;12.50;99.90;;;;;;5033814;28;20482;-61
2022/10/25 03:11:11;;;;;;;3.10;2.70;;;12.50;99.90;;;;;;5033985;28;20472;-61
2022/10/25 03:13:39;;;;;;;4.33;2.90;;;12.50;99.90;;;;;;5033870;28;20474;-61
2022/10/25 03:16:07;;;;;;;5.97;3.00;;;12.50;99.90;;;;;;5033705;28;20537;-61
2022/10/25 03:18:34;;;;;;;3.40;2.70;;;12.50;99.90;;;;;;5033830;28;20577;-63
2022/10/25 03:21:03;;;;;;;7.10;2.80;;;12.50;99.90;;;;;;5033552;28;20434;-61
2022/10/25 03:23:30;;;;;;;8.10;2.70;;;12.60;99.90;;;;;;5033232;28;20490;-62
2022/10/25 03:25:59;;;;;;;4.67;3.07;;;12.60;99.90;;;;;;5033561;28;20521;-61
2022/10/25 03:28:29;;;;;;;4.63;2.83;;;12.60;99.90;;;;;;5033709;28;20446;-61
2022/10/25 03:30:57;;;;;;;4.33;2.60;;;12.50;99.90;;;;;;5033420;28;20493;-61
2022/10/25 03:33:25;;;;;;;3.00;2.70;;;12.50;99.90;;;;;;5033652;28;20984;-61
2022/10/25 03:35:53;;;;;;;3.13;2.50;;;12.50;99.90;;;;;;5033378;28;21003;-62
2022/10/25 03:38:20;;;;;;;4.47;2.60;;;12.50;99.90;;;;;;5033236;28;20569;-62
2022/10/25 03:40:47;;;;;;;4.47;2.97;;;12.50;99.90;;;;;;5033362;28;20955;-61
2022/10/25 03:43:15;;;;;;;3.93;2.57;;;12.50;99.90;;;;;;5032845;28;21047;-61
2022/10/25 03:45:43;;;;;;;4.00;2.80;;;12.50;99.90;;;;;;5033446;28;20528;-61
2022/10/25 03:48:11;;;;;;;5.73;2.97;;;12.40;99.90;;;;;;5033263;28;20452;-62
2022/10/25 03:50:38;;;;;;;6.73;2.57;;;12.50;99.90;;;;;;5033163;28;20861;-62
2022/10/25 03:53:06;;;;;;;4.47;3.10;;;12.40;99.90;;;;;;5033336;28;20498;-62
2022/10/25 03:55:34;;;;;;;6.60;3.10;;;12.50;99.90;;;;;;5033449;28;20450;-62
2022/10/25 03:58:01;;;;;;;5.43;3.37;;;12.60;99.90;;;;;;5033430;28;20478;-62
2022/10/25 04:00:29;;;;;;;4.83;2.70;;;12.50;99.90;;;;;;5033335;28;20548;-62
2022/10/25 04:02:59;;;;;;;3.27;2.50;;;12.50;99.90;;;;;;5032755;28;20968;-62
2022/10/25 04:05:27;;;;;;;4.23;2.40;;;12.60;99.90;;;;;;5033148;28;20964;-62
2022/10/25 04:07:54;;;;;;;10.43;2.57;;;12.50;99.90;;;;;;5032944;28;20529;-62
2022/10/25 04:10:21;;;;;;;5.40;2.50;;;12.50;99.90;;;;;;5032855;28;20887;-62
2022/10/25 04:12:48;;;;;;;5.03;3.50;;;12.50;99.90;;;;;;5032987;28;20560;-62
2022/10/25 04:15:16;;;;;;;5.10;2.70;;;12.60;99.90;;;;;;5033232;28;20547;-62
2022/10/25 04:17:43;;;;;;;6.03;2.80;;;12.60;99.90;;;;;;5032839;28;20545;-62
2022/10/25 04:20:12;;;;;;;3.07;2.70;;;12.60;99.90;;;;;;5033359;28;20535;-62
2022/10/25 04:22:39;;;;;;;3.60;2.80;;;12.50;99.90;;;;;;5032763;28;20465;-63
2022/10/25 04:25:07;;;;;;;2.63;2.07;;;12.50;99.90;;;;;;5032679;28;20556;-63
2022/10/25 04:27:35;;;;;;;4.10;2.53;;;12.50;99.90;;;;;;5033185;28;20537;-62
2022/10/25 04:30:02;;;;;;;4.90;2.87;;;12.40;99.90;;;;;;5032797;28;20434;-62
2022/10/25 04:32:29;;;;;;;5.57;3.17;;;12.40;99.90;;;;;;5032579;28;20993;-62
2022/10/25 04:34:56;;;;;;;3.23;2.77;;;12.50;99.90;;;;;;5032888;28;20497;-62
2022/10/25 04:37:25;;;;;;;3.90;2.97;;;12.50;99.90;;;;;;5032939;28;20468;-62
2022/10/25 04:39:52;;;;;;;3.80;3.37;;;12.50;99.90;;;;;;5032492;28;20894;-62
2022/10/25 04:42:19;;;;;;;8.47;3.53;;;12.40;99.90;;;;;;5032684;28;20474;-62
2022/10/25 04:44:46;;;;;;;3.63;2.10;;;12.50;99.90;;;;;;5032674;28;20988;-62
2022/10/25 04:47:13;;;;;;;5.20;2.73;;;12.50;99.90;;;;;;5032940;28;20503;-62
2022/10/25 04:49:41;;;;;;;3.43;3.13;;;12.50;99.90;;;;;;5032789;28;20872;-62
2022/10/25 04:52:08;;;;;;;3.53;2.63;;;12.50;99.90;;;;;;5032564;28;20469;-62
2022/10/25 04:54:36;;;;;;;3.27;2.83;;;12.50;99.90;;;;;;5034904;28;20864;-62
2022/10/25 04:57:06;;;;;;;6.40;3.53;;;12.50;99.90;;;;;;5036170;28;20550;-62
2022/10/25 04:59:33;;;;;;;4.70;2.40;;;12.50;99.90;;;;;;5036381;28;20561;-62
2022/10/25 05:02:00;;;;;;;3.13;2.50;;;12.50;99.90;;;;;;5036237;28;20466;-63
2022/10/25 05:04:27;;;;;;;4.03;3.17;;;12.50;99.90;;;;;;5036310;28;20456;-63
2022/10/25 05:06:54;;;;;;;5.27;3.60;;;12.60;99.90;;;;;;5036009;28;20477;-62
2022/10/25 05:09:22;;;;;;;11.33;3.23;;;12.50;99.90;;;;;;5036200;28;20489;-62
2022/10/25 05:11:50;;;;;;;4.80;2.63;;;12.50;99.90;;;;;;5036022;28;20797;-63
2022/10/25 05:14:17;;;;;;;2.80;2.57;;;12.50;99.90;;;;;;5035889;28;21001;-62
2022/10/25 05:16:45;;;;;;;2.83;2.53;;;12.50;99.90;;;;;;5035957;28;20545;-62
2022/10/25 05:19:12;;;;;;;3.03;2.70;;;12.50;99.90;;;;;;5035608;28;20645;-63
2022/10/25 05:21:39;;;;;;;5.87;2.57;;;12.60;99.90;;;;;;5035981;28;20485;-63
2022/10/25 05:24:06;;;;;;;5.60;3.00;;;12.60;99.90;;;;;;5035301;28;21057;-63
2022/10/25 05:26:34;;;;;;;4.60;2.97;;;12.50;99.90;;;;;;5035653;28;20500;-62
2022/10/25 05:29:02;;;;;;;3.73;2.63;;;12.50;99.90;;;;;;5035890;28;20492;-62
2022/10/25 05:31:30;;;;;;;3.97;3.57;;;12.50;99.90;;;;;;5035537;28;20446;-62
2022/10/25 05:33:59;;;;;;;4.13;2.90;;;12.40;99.90;;;;;;5035471;28;20470;-62
2022/10/25 05:36:28;;;;;;;3.40;3.10;;;12.50;99.90;;;;;;5035556;28;20454;-63
2022/10/25 05:38:56;;;;;;;3.43;3.13;;;12.50;99.90;;;;;;5035168;28;20485;-62
2022/10/25 05:41:23;;;;;;;4.10;2.97;;;12.50;99.90;;;;;;5035188;28;20514;-62
2022/10/25 05:43:50;;;;;;;3.33;3.03;;;12.50;99.90;;;;;;5035349;28;21034;-62
2022/10/25 05:46:21;;;;;;;6.90;3.10;;;12.40;99.90;;;;;;5035155;28;20929;-62
2022/10/25 05:48:49;;;;;;;3.53;2.70;;;12.50;99.90;;;;;;5035047;28;20454;-62
2022/10/25 05:51:18;;;;;;;5.60;2.80;;;12.40;99.90;;;;;;5034833;28;20545;-62
2022/10/25 05:53:46;;;;;;;4.90;3.23;;;12.40;99.90;;;;;;5034982;28;20557;-62
2022/10/25 05:56:14;;;;;;;4.87;3.43;;;12.50;99.90;;;;;;5035199;28;20446;-62
2022/10/25 05:58:42;;;;;;;3.70;2.87;;;12.50;99.90;;;;;;5034617;28;20454;-62
2022/10/25 06:01:10;;;;;;;3.83;2.47;;;12.50;99.90;;;;;;5034850;28;20448;-62
2022/10/25 06:03:39;;;;;;;4.07;2.70;;;12.50;99.90;;;;;;5035106;28;20502;-62
2022/10/25 06:06:08;;;;;;;4.87;3.50;;;12.50;99.90;;;;;;5034238;28;20541;-62
2022/10/25 06:08:36;;;;;;;7.00;2.97;;;12.50;99.90;;;;;;5034517;28;20805;-62
2022/10/25 06:11:04;;;;;;;5.80;2.83;;;12.50;99.90;;;;;;5035076;28;20442;-62
2022/10/25 06:13:32;;;;;;;4.87;3.07;;;12.50;99.90;;;;;;5034627;28;20796;-63
2022/10/25 06:16:02;;;;;;;3.90;3.07;;;12.50;99.90;;;;;;5034359;28;20529;-62
2022/10/25 06:18:29;;;;;;;4.27;2.87;;;12.50;99.90;;;;;;5034297;28;20965;-63
2022/10/25 06:21:02;;;;;;;9.00;3.00;;;12.50;99.90;;;;;;5034242;28;20553;-63
2022/10/25 06:23:30;;;;;;;8.70;3.00;;;12.60;99.90;;;;;;5033981;28;20570;-63
2022/10/25 06:26:01;;;;;;;3.60;3.03;;;12.60;99.90;;;;;;5034569;28;20773;-61
2022/10/25 06:28:28;;;;;;;4.73;2.60;;;12.70;99.90;;;;;;5034716;28;20430;-61
2022/10/25 06:31:01;;;;;;;3.90;2.43;;;12.60;99.90;;;;;;5034007;28;20449;-61
2022/10/25 06:33:29;;;;;;;6.63;2.73;;;12.70;99.90;;;;;;5033832;28;20929;-61
2022/10/25 06:35:58;;;;;;;3.73;2.40;;;12.70;99.90;;;;;;5034190;28;20812;-60
2022/10/25 06:39:12;;;;;;;3.50;2.83;;;12.70;99.90;;;;;;5034002;28;20454;-61
2022/10/25 06:42:35;;;;;;;2.93;2.60;;;12.70;99.90;;;;;;5028926;28;20458;-60
2022/10/25 06:45:02;;;;;;;4.40;3.10;;;12.70;99.90;;;;;;5028169;28;20442;-61
2022/10/25 06:47:29;;;;;;;6.10;3.00;;;12.70;99.90;;;;;;5033960;28;20484;-60
2022/10/25 06:49:56;;;;;;;10.80;3.10;;;12.70;99.90;;;;;;5033530;28;20497;-60
2022/10/25 06:52:25;;;;;;;7.23;2.70;;;12.60;99.90;;;;;;5033708;28;20474;-60
2022/10/25 06:54:52;;;;;;;3.70;3.17;;;12.60;99.90;;;;;;5033771;28;20496;-61
2022/10/25 06:57:19;;;;;;;4.10;2.70;;;12.70;99.90;;;;;;5033497;28;20937;-60
2022/10/25 06:59:47;;;;;;;4.70;2.70;;;12.70;99.90;;;;;;5033775;28;20564;-62
2022/10/25 07:02:14;;;;;;;7.93;2.97;;;12.70;99.90;;;;;;5033827;28;20498;-63
2022/10/25 07:04:41;;;;;;;6.67;2.60;;;12.70;99.90;;;;;;5033821;28;20624;-61
2022/10/25 07:07:09;;;;;;;8.70;3.50;;;12.80;99.90;;;;;;5033648;28;20530;-61
2022/10/25 07:09:37;;;;;;;8.30;2.93;;;12.90;99.90;;;;;;5033569;28;20538;-60
2022/10/25 07:12:05;;;;;;;6.70;6.10;;;13.00;99.90;;;;;;5033500;28;20553;-61
2022/10/25 07:14:32;;;;;;;7.83;3.40;;;;;;;;;;5033498;28;20577;-61
2022/10/25 07:16:59;;;;;;;4.30;2.97;;;13.10;99.90;;;;;;5032778;28;20489;-61
2022/10/25 07:19:26;;;;;;;4.00;2.57;;;13.20;99.90;;;;;;5033249;28;20987;-61
2022/10/25 07:21:54;;;;;;;3.73;3.03;;;;;;;;;;5032773;28;20925;-61
2022/10/25 07:24:21;;;;;;;4.83;3.23;;;13.60;99.90;;;;;;5032577;28;20482;-61
2022/10/25 07:26:50;;;;;;;3.90;2.60;;;13.50;99.90;;;;;;5032696;28;20538;-61
2022/10/25 07:29:17;;;;;;;3.57;2.60;;;13.50;99.90;;;;;;5032912;28;20546;-61
2022/10/25 07:31:44;;;;;;;3.93;3.50;;;13.50;99.90;;;;;;5033012;28;20488;-62
2022/10/25 07:34:13;;;;;;;4.23;2.70;;;13.50;99.90;;;;;;5033128;28;20499;-61
2022/10/25 07:36:40;;;;;;;7.10;5.10;;;13.60;99.90;;;;;;5032813;28;20446;-60
2022/10/25 07:39:07;;;;;;;8.43;2.47;;;13.60;99.90;;;;;;5032933;28;20542;-59
2022/10/25 07:41:35;;;;;;;5.60;2.87;;;13.70;99.90;;;;;;5032916;28;20533;-59
2022/10/25 07:44:03;;;;;;;4.53;4.13;;;13.80;99.90;;;;;;5032722;28;20596;-60
2022/10/25 07:46:31;;;;;;;5.87;2.83;;;13.80;99.90;;;;;;5033131;28;20927;-59
2022/10/25 07:48:58;;;;;;;4.30;2.30;;;13.80;99.90;;;;;;5032838;28;20458;-60
2022/10/25 07:51:25;;;;;;;5.67;3.10;;;13.80;99.90;;;;;;5032667;28;20438;-59
2022/10/25 07:53:53;;;;;;;3.67;2.73;;;13.80;99.90;;;;;;5032824;28;20492;-60
2022/10/25 07:56:21;;;;;;;5.03;2.93;;;13.80;99.90;;;;;;5032853;28;20434;-62
2022/10/25 07:58:48;;;;;;;7.67;2.70;;;13.80;99.90;;;;;;5032733;28;20540;-61
2022/10/25 08:01:20;;;;;;;5.83;2.53;;;13.90;99.90;;;;;;5032537;28;21010;-60
2022/10/25 08:03:47;;;;;;;4.80;2.93;;;13.90;99.90;;;;;;5032890;28;20481;-60
2022/10/25 08:06:14;;;;;;;5.83;2.40;;;13.90;99.90;;;;;;5032893;28;20528;-61
2022/10/25 08:08:42;;;;;;;5.60;2.90;;;14.00;99.90;;;;;;5032680;28;20433;-61
2022/10/25 08:11:09;;;;;;;5.03;3.20;;;14.00;99.90;;;;;;5033001;28;20450;-60
2022/10/25 08:13:37;;;;;;;3.30;2.73;;;14.00;99.90;;;;;;5032895;28;20496;-61
2022/10/25 08:16:05;;;;;;;7.10;2.70;;;14.10;99.90;;;;;;5033005;28;20545;-59
2022/10/25 08:18:34;;;;;;;6.23;3.30;;;14.20;99.90;;;;;;5032959;28;20545;-61
2022/10/25 08:21:02;;;;;;;8.93;6.60;;;14.30;99.90;;;;;;5032474;28;20481;-61
2022/10/25 08:23:30;;;;;;;4.37;3.07;;;14.30;99.90;;;;;;5032391;28;20496;-61
2022/10/25 08:25:57;;;;;;;5.13;3.67;;;14.30;99.90;;;;;;5032896;28;20434;-62
2022/10/25 08:28:24;;;;;;;4.57;2.90;;;14.40;99.90;;;;;;5034813;28;20528;-61
2022/10/25 08:30:54;;;;;;;4.67;3.00;;;14.50;99.90;;;;;;5036782;28;20452;-63
2022/10/25 08:33:21;;;;;;;6.43;2.70;;;14.50;99.90;;;;;;5036439;28;20470;-62
2022/10/25 08:35:49;;;;;;;2.63;2.40;;;14.60;99.90;;;;;;5036749;28;20438;-62
2022/10/25 08:38:17;;;;;;;3.03;2.30;;;14.70;99.90;;;;;;5036231;28;20481;-62
2022/10/25 08:40:54;;;;;;;5.57;2.47;;;14.70;99.90;;;;;;5036128;28;20486;-61
2022/10/25 08:43:50;;;;;;;27.83;15.90;;;14.70;99.90;;;;;;5036420;28;20548;-61
2022/10/25 08:46:21;;;;;;;3.57;2.37;;;14.80;99.90;;;;;;5027775;28;20540;-61
2022/10/25 08:48:54;;;;;;;3.00;2.30;;;14.80;99.90;;;;;;5036125;28;20450;-62
2022/10/25 08:51:29;;;;;;;3.10;2.07;;;14.80;99.90;;;;;;5036366;28;20438;-62
2022/10/25 08:54:00;;;;;;;2.60;2.30;;;14.90;99.90;;;;;;5035983;28;20999;-62
2022/10/25 08:56:29;;;;;;;11.80;2.37;;;15.10;99.90;;;;;;5035922;28;20925;-62
2022/10/25 08:58:59;;;;;;;2.60;1.83;;;15.10;99.90;;;;;;5035960;28;20533;-61
2022/10/25 09:01:40;;;;;;;6.23;2.80;;;15.20;99.90;;;;;;5035950;28;20564;-61
2022/10/25 09:04:07;;;;;;;4.30;2.70;;;15.30;99.90;;;;;;5035663;28;20490;-62
2022/10/25 09:06:41;;;;;;;3.73;2.20;;;15.50;99.90;;;;;;5035666;28;20460;-62
2022/10/25 09:09:21;;;;;;;2.73;2.13;;;15.50;99.90;;;;;;5035706;28;20427;-63
2022/10/25 09:11:58;;;;;;;6.70;2.37;;;15.60;99.90;;;;;;5035502;28;20422;-62
2022/10/25 09:14:35;;;;;;;8.30;2.50;;;15.60;99.90;;;;;;5035541;28;20521;-63
2022/10/25 09:17:12;;;;;;;4.90;2.57;;;15.70;99.90;;;;;;5035546;28;20885;-62
2022/10/25 09:19:48;;;;;;;5.20;2.47;;;15.80;99.90;;;;;;5035174;28;20928;-61
2022/10/25 09:22:22;;;;;;;5.60;2.10;;;15.90;99.90;;;;;;5035515;28;20512;-62
2022/10/25 09:24:57;;;;;;;5.97;1.97;;;16.00;99.90;;;;;;5035132;28;20560;-62
2022/10/25 09:27:33;;;;;;;6.70;2.93;;;16.00;99.90;;;;;;5035837;28;20458;-61
2022/10/25 09:30:04;;;;;;;9.37;2.17;;;16.10;99.90;;;;;;5035297;28;20517;-62
2022/10/25 09:32:37;;;;;;;5.70;2.20;;;16.10;99.90;;;;;;5035075;28;20551;-61
2022/10/25 09:35:06;;;;;;;7.93;1.73;;;16.20;99.90;;;;;;5035455;28;20772;-60
2022/10/25 09:37:40;;;;;;;3.23;2.50;;;16.30;99.90;;;;;;5034732;28;20933;-60
2022/10/25 09:40:14;;;;;;;3.97;2.70;;;16.30;99.90;;;;;;5034581;28;20473;-60
2022/10/25 09:42:46;;;;;;;2.00;1.90;;;16.40;99.90;;;;;;5035137;28;20470;-61
2022/10/25 09:45:22;;;;;;;3.40;2.23;;;16.40;99.90;;;;;;5035168;28;20826;-61
2022/10/25 09:48:00;;;;;;;2.57;1.90;;;16.50;99.90;;;;;;5035156;28;20488;-61
2022/10/25 09:50:30;;;;;;;6.23;2.30;;;16.50;99.90;;;;;;5035462;28;20486;-61
2022/10/25 09:53:09;;;;;;;5.83;2.63;;;16.50;99.90;;;;;;5034804;28;20455;-60
2022/10/25 09:55:42;;;;;;;3.10;1.83;;;16.50;99.90;;;;;;5034810;28;20442;-60
2022/10/25 09:58:16;;;;;;;3.80;2.47;;;16.70;99.90;;;;;;5034623;28;20598;-60
2022/10/25 10:00:44;;;;;;;5.70;3.50;;;16.70;99.90;;;;;;5034610;28;20476;-61
2022/10/25 10:03:13;;;;;;;3.23;2.80;;;16.70;99.90;;;;;;5034579;28;20566;-61
2022/10/25 10:05:44;;;;;;;3.23;2.20;;;16.80;99.90;;;;;;5034625;28;20450;-61
2022/10/25 10:08:13;;;;;;;4.97;3.27;;;16.90;99.90;;;;;;5034411;28;20517;-61
2022/10/25 10:10:41;;;;;;;3.90;2.17;;;16.90;99.90;;;;;;5034373;28;20529;-59
2022/10/25 10:13:17;;;;;;;7.30;3.27;;;17.00;99.90;;;;;;5034511;28;20513;-60
2022/10/25 10:15:51;;;;;;;13.60;3.40;;;17.00;99.90;;;;;;5034704;28;20430;-59
2022/10/25 10:18:30;;;;;;;6.70;2.10;;;17.10;99.90;;;;;;5034307;28;20525;-60
2022/10/25 10:21:08;;;;;;;3.50;2.33;;;17.40;99.90;;;;;;5034330;28;20899;-61
2022/10/25 10:23:47;;;;;;;5.37;2.17;;;18.00;99.90;;;;;;5033870;28;20492;-60
2022/10/25 10:26:22;;;;;;;2.57;1.90;;;18.80;99.90;;;;;;5034396;28;20509;-60
2022/10/25 10:28:51;;;;;;;2.80;2.10;;;19.40;99.90;;;;;;5034389;28;20509;-60
2022/10/25 10:31:19;;;;;;;6.13;2.67;;;;;;;;;;5034133;28;20448;-60
2022/10/25 10:33:50;;;;;;;4.30;2.27;;;21.20;99.90;;;;;;5033797;28;20474;-62
2022/10/25 10:36:25;;;;;;;4.90;2.30;;;;;;;;;;5034310;28;20486;-62
2022/10/25 10:38:54;;;;;;;3.00;1.93;;;21.60;99.90;;;;;;5033953;28;20445;-61
2022/10/25 10:41:26;;;;;;;2.70;1.63;;;;;;;;;;5033682;28;20492;-62
2022/10/25 10:44:18;;;;;;;8.23;2.00;;;22.90;99.90;;;;;;5033942;28;20472;-63
2022/10/25 10:46:46;;;;;;;4.73;2.47;;;22.50;99.90;;;;;;5033777;28;20427;-61
2022/10/25 10:49:15;;;;;;;4.27;2.30;;;23.10;99.90;;;;;;5033924;28;20465;-62
2022/10/25 10:51:44;;;;;;;3.23;2.00;;;23.50;99.90;;;;;;5032426;28;20945;-61
2022/10/25 10:54:27;;;;;;;7.30;2.70;;;23.60;99.90;;;;;;5033301;28;20541;-61
2022/10/25 10:56:56;;;;;;;1.87;1.67;;;23.40;99.90;;;;;;5033211;28;20477;-62
2022/10/25 10:59:40;;;;;;;3.80;2.20;;;23.60;99.90;;;;;;5033432;28;20452;-62
2022/10/25 11:02:27;;;;;;;2.87;1.90;;;23.50;99.90;;;;;;5032976;28;20485;-62
2022/10/25 11:04:56;;;;;;;2.90;1.70;;;23.80;99.90;;;;;;5034251;28;20859;-62
2022/10/25 11:07:33;;;;;;;4.93;2.10;;;24.40;99.90;;;;;;5033690;28;20779;-62
2022/10/25 11:10:24;;;;;;;2.97;2.00;;;24.70;99.90;;;;;;5033798;28;20415;-63
2022/10/25 11:13:11;;;;;;;2.70;1.60;;;25.30;99.90;;;;;;5033487;28;20470;-62
2022/10/25 11:16:33;;;;;;;3.00;1.63;;;24.90;99.90;;;;;;5033977;28;20490;-61
2022/10/25 11:19:25;;;;;;;3.63;1.70;;;26.40;99.90;;;;;;5033605;28;20454;-63
2022/10/25 11:22:14;;;;;;;4.43;1.77;;;25.30;99.90;;;;;;5031489;28;20474;-61
2022/10/25 11:24:51;;;;;;;4.80;2.00;;;24.80;99.90;;;;;;5032967;28;20580;-62
2022/10/25 11:27:29;;;;;;;3.00;1.93;;;24.80;99.90;;;;;;5033489;28;20787;-62
2022/10/25 11:30:05;;;;;;;3.83;2.43;;;24.60;99.90;;;;;;5033202;28;20526;-63
2022/10/25 11:33:03;;;;;;;4.70;2.30;;;24.50;99.90;;;;;;5032634;28;20553;-62
2022/10/25 11:35:49;;;;;;;2.70;1.90;;;24.00;99.90;;;;;;5032731;28;21028;-62
2022/10/25 11:38:23;;;;;;;2.30;1.73;;;24.70;99.90;;;;;;5033263;28;20852;-63
2022/10/25 11:41:00;;;;;;;2.23;1.90;;;24.40;99.90;;;;;;5033007;28;20556;-62
2022/10/25 11:43:48;;;;;;;4.27;1.80;;;23.60;99.90;;;;;;5033052;28;20466;-63
2022/10/25 11:46:28;;;;;;;2.57;1.90;;;22.60;99.90;;;;;;5033063;28;20462;-61
2022/10/25 11:49:12;;;;;;;3.00;2.10;;;22.10;99.90;;;;;;5032801;28;20886;-59
2022/10/25 11:51:51;;;;;;;4.37;2.07;;;22.30;99.90;;;;;;5032270;28;20434;-59
2022/10/25 11:54:30;;;;;;;5.93;1.40;;;22.30;99.90;;;;;;5032198;28;20427;-60
2022/10/25 11:57:12;;;;;;;6.17;2.10;;;21.50;99.90;;;;;;5032523;28;20829;-60
2022/10/25 11:59:54;;;;;;;3.70;1.97;;;21.30;99.90;;;;;;5032293;28;20513;-60
2022/10/25 12:02:46;;;;;;;2.40;1.87;;;22.10;99.90;;;;;;5033152;28;20568;-61
2022/10/25 12:05:25;;;;;;;2.13;1.30;;;22.90;99.90;;;;;;5039007;28;20440;-61
2022/10/25 12:08:03;;;;;;;3.77;1.80;;;23.20;99.90;;;;;;5039366;28;20429;-61
2022/10/25 12:10:36;;;;;;;2.40;1.73;;;22.80;99.90;;;;;;5039213;28;20494;-61
2022/10/25 12:13:06;;;;;;;2.87;1.53;;;22.30;99.90;;;;;;5039345;28;20500;-61
2022/10/25 12:15:38;;;;;;;1.70;1.60;;;22.00;99.90;;;;;;5039566;28;20533;-61
2022/10/25 12:18:08;;;;;;;14.03;2.87;;;21.90;99.90;;;;;;5039485;28;20517;-61
2022/10/25 12:20:36;;;;;;;2.43;1.70;;;21.70;99.90;;;;;;5039342;28;20870;-60
2022/10/25 12:23:09;;;;;;;2.20;1.63;;;21.60;99.90;;;;;;5038960;28;20964;-60
2022/10/25 12:25:41;;;;;;;6.30;2.07;;;21.50;99.90;;;;;;5037547;28;20484;-60
2022/10/25 12:28:20;;;;;;;4.10;2.10;;;21.50;99.90;;;;;;5039307;28;20430;-60
2022/10/25 12:30:51;;;;;;;3.40;1.90;;;21.50;99.90;;;;;;5038988;28;20430;-60
2022/10/25 12:33:28;;;;;;;7.37;1.70;;;21.30;99.90;;;;;;5039153;28;20469;-60
2022/10/25 12:36:00;;;;;;;8.43;1.77;;;20.90;99.90;;;;;;5039127;28;20434;-60
2022/10/25 12:38:32;;;;;;;4.07;2.10;;;20.40;99.90;;;;;;5039175;28;20521;-60
2022/10/25 12:41:05;;;;;;;6.47;2.10;;;20.50;99.90;;;;;;5038996;28;20521;-61
2022/10/25 12:43:37;;;;;;;6.20;2.37;;;20.80;99.90;;;;;;5038785;28;20481;-61
2022/10/25 12:46:38;;;;;;;3.00;1.77;;;20.70;99.90;;;;;;5039184;28;20434;-61
2022/10/25 12:49:37;;;;;;;4.67;1.90;;;20.70;99.90;;;;;;5014825;28;20456;-60
2022/10/25 12:52:15;;;;;;;4.63;1.80;;;20.50;99.90;;;;;;5038560;28;20908;-60
2022/10/25 12:55:17;;;;;;;6.70;2.40;;;20.50;99.90;;;;;;5038875;28;20465;-63
2022/10/25 12:57:55;;;;;;;4.87;2.10;;;20.40;99.90;;;;;;5038530;28;20499;-60
2022/10/25 13:00:24;;;;;;;7.57;2.13;;;20.10;99.90;;;;;;5038671;28;20460;-61
2022/10/25 13:03:10;;;;;;;2.90;2.03;;;;;;;;;;5038740;28;20490;-62
2022/10/25 13:06:13;;;;;;;5.80;2.20;;;19.70;99.90;;;;;;5038772;28;20901;-61
2022/10/25 13:08:43;;;;;;;4.50;2.03;;;19.70;99.90;;;;;;5038917;28;20556;-62
2022/10/25 13:11:11;;;;;;;5.87;2.43;;;19.90;99.90;;;;;;5038802;28;20485;-61
2022/10/25 13:13:46;;;;;;;3.43;2.07;;;20.50;99.90;;;;;;5038094;28;20552;-62